Accueil
METAR-TAF:

METAR-TAF

Aéroports :

St Athan, Pays de Galles

latitude: 51-24N, longitude: 003-26W, altitude: 50 m

Observation

Le bulletin a été fait il y a 37 minutes, à 20:50 UTC
Vent 2 kt de est/nord-est
Température 6°C
Humidité 65%
Pression 1021 hPa
Visibilité 10 km ou plus

METAR: EGDX 262050Z AUTO 06002KT 9999 BKN080/// 06/00 Q1021 RERA

Heure: 22:27 (21:27 UTC)

Prévision

Le bulletin a été fait il y a 7 heures et 17 minutes, à 14:10 UTC
Prévision valable du 26 à 15 UTC au 26 à 18 UTC
Vent 6 kt de ouest/nord-ouest
Visibilité 10 km ou plus
Nuages épars à une hauteur de 4000 ft
Probabilité 30% :
Temporairement
du 26 à 15 UTC au 26 à 18 UTC
Nuages épars à une hauteur de 2000 ft

TAF: EGDX 261410Z 2615/2618 30006KT 9999 SCT040 PROB30 TEMPO 2615/2618 SCT020

Observations et prévisions météorologiques de plus de 4000 aéroports (messages METAR et TAF).

Les stations disponibles sont représentées par des disques jaunes et rouges sur la carte.

Passer la souris dessus pour voir le nom de la station.

Cliquer dessus pour voir les observations et prévisions météorologiques.

Pour changer de carte: cliquez sur les boutons verts avec une croix noire pour zoomer, sur le bouton vert avec un tiret pour effectuer un zoom arrière, ou sur les flèches vertes pour les cartes adjacentes.


METAR-TAF: